Time;durP1;ratioP1;P1;durP2;ratioP2;P2;SDS_P1;SDS_P2;PMS_P1;PMS_P2;Temp;Humidity;BMP_temperature;BMP_pressure;BME280_temperature;BME280_humidity;BME280_pressure;Samples;Min_cycle;Max_cycle;Signal;HPM_P1;HPM_P2
2021/12/30 00:01:54;;;;;;;11.95;9.35;;;;;;;6.46;97.73;98127.31;6125963;23;20017;-77
2021/12/30 00:04:22;;;;;;;11.35;8.13;;;;;;;6.48;97.64;98135.84;6151475;23;20017;-76
2021/12/30 00:06:47;;;;;;;13.18;8.88;;;;;;;6.49;97.56;98145.38;6103047;23;20033;-77
2021/12/30 00:09:14;;;;;;;11.05;8.60;;;;;;;6.51;97.37;98147.81;6126644;23;20415;-77
2021/12/30 00:11:41;;;;;;;12.52;9.60;;;;;;;6.48;97.40;98148.28;6127282;23;20001;-77
2021/12/30 00:14:07;;;;;;;15.15;10.00;;;;;;;6.51;97.23;98164.50;6127046;23;20452;-77
2021/12/30 00:16:33;;;;;;;10.18;7.50;;;;;;;6.52;97.06;98158.16;6125550;23;20036;-76
2021/12/30 00:18:58;;;;;;;19.02;10.25;;;;;;;6.53;97.18;98161.63;6102399;23;20384;-75
2021/12/30 00:21:24;;;;;;;14.18;8.77;;;;;;;6.54;96.79;98171.97;6128096;23;20097;-76
2021/12/30 00:23:50;;;;;;;14.57;9.45;;;;;;;6.56;97.08;98169.91;6149113;23;20035;-76
2021/12/30 00:26:17;;;;;;;15.57;11.82;;;;;;;6.57;96.99;98176.81;6125346;23;20005;-76
2021/12/30 00:28:43;;;;;;;13.55;9.23;;;;;;;6.58;96.58;98186.38;6125792;23;20432;-77
2021/12/30 00:31:08;;;;;;;15.85;11.75;;;;;;;6.58;96.39;98199.63;6126184;23;20013;-77
2021/12/30 00:33:34;;;;;;;20.60;11.82;;;;;;;6.59;96.13;98203.09;6124307;23;20458;-77
2021/12/30 00:36:07;;;;;;;14.00;9.93;;;;;;;6.56;96.00;98191.09;6125586;23;20009;-77
2021/12/30 00:38:34;;;;;;;17.05;11.93;;;;;;;6.63;96.88;98199.72;6125450;23;20008;-76
2021/12/30 00:41:00;;;;;;;19.35;11.60;;;;;;;6.65;96.60;98212.72;6125688;23;20063;-77
2021/12/30 00:43:25;;;;;;;13.95;10.80;;;;;;;6.65;96.54;98213.53;6124888;23;20029;-77
2021/12/30 00:45:51;;;;;;;16.77;10.80;;;;;;;6.68;96.26;98217.56;6126247;23;20010;-77
2021/12/30 00:48:17;;;;;;;20.33;11.68;;;;;;;6.68;95.62;98212.25;6099822;23;20019;-77
2021/12/30 00:50:44;;;;;;;19.45;9.90;;;;;;;6.68;96.01;98223.66;6124623;23;20013;-77
2021/12/30 00:53:10;;;;;;;16.48;11.32;;;;;;;6.69;95.48;98212.00;6150570;23;20033;-77
2021/12/30 00:55:37;;;;;;;15.98;10.63;;;;;;;6.71;95.51;98222.38;6128481;23;20001;-77
2021/12/30 00:58:03;;;;;;;18.75;12.05;;;;;;;6.72;95.56;98226.66;6129284;23;20063;-76
2021/12/30 01:00:29;;;;;;;17.38;11.98;;;;;;;6.72;95.33;98219.50;6104322;23;20013;-76
2021/12/30 01:02:55;;;;;;;18.60;12.70;;;;;;;6.73;95.30;98223.75;6151603;23;20500;-77
2021/12/30 01:05:20;;;;;;;20.95;11.00;;;;;;;6.74;95.29;98230.66;6101367;23;20107;-77
2021/12/30 01:07:46;;;;;;;18.80;10.30;;;;;;;6.76;95.43;98235.72;6102015;23;20008;-77
2021/12/30 01:10:15;;;;;;;20.33;12.65;;;;;;;6.75;95.07;98223.50;6126023;23;20013;-77
2021/12/30 01:12:41;;;;;;;21.23;13.82;;;;;;;6.76;95.46;98211.84;6125864;23;20080;-77
2021/12/30 01:15:10;;;;;;;22.23;13.38;;;;;;;6.70;95.15;98200.38;6127122;23;20424;-77
2021/12/30 01:17:50;;;;;;;19.17;13.50;;;;;;;6.77;94.95;98224.09;6127627;23;20032;-77
2021/12/30 01:20:19;;;;;;;16.73;11.85;;;;;;;6.77;95.70;98237.34;6104566;23;20014;-77
2021/12/30 01:22:47;;;;;;;26.77;14.15;;;;;;;6.77;94.65;98248.75;6126771;23;20010;-77
2021/12/30 01:25:15;;;;;;;20.90;14.43;;;;;;;6.77;95.70;98261.22;6078168;23;20424;-77
2021/12/30 01:27:40;;;;;;;18.95;12.93;;;;;;;6.77;95.49;98263.88;6102494;23;20080;-77
2021/12/30 01:30:10;;;;;;;24.77;14.75;;;;;;;6.73;95.87;98279.44;6101122;23;20018;-77
2021/12/30 01:32:35;;;;;;;18.40;12.63;;;;;;;6.78;94.65;98286.69;6127911;23;20009;-76
2021/12/30 01:35:03;;;;;;;22.05;13.80;;;;;;;6.78;95.77;98284.03;6129831;23;20014;-75
2021/12/30 01:37:29;;;;;;;28.38;15.07;;;;;;;6.78;96.04;98287.50;6130646;23;20428;-75
2021/12/30 01:39:54;;;;;;;19.90;14.57;;;;;;;6.79;95.60;98302.34;6105771;23;20021;-75
2021/12/30 01:42:20;;;;;;;27.60;16.15;;;;;;;6.81;95.65;98302.91;6130015;23;20009;-75
2021/12/30 01:44:46;;;;;;;27.00;14.32;;;;;;;6.81;95.68;98307.44;6130059;23;20005;-75
2021/12/30 01:47:12;;;;;;;22.48;13.70;;;;;;;6.82;96.02;98299.22;6105433;23;19997;-75
2021/12/30 01:49:37;;;;;;;32.33;14.45;;;;;;;6.81;95.37;98291.53;6105565;23;20013;-75
2021/12/30 01:52:03;;;;;;;27.20;14.57;;;;;;;6.85;94.95;98295.31;6105438;23;20066;-75
2021/12/30 01:54:29;;;;;;;28.30;15.40;;;;;;;6.85;95.89;98300.63;6129667;23;20092;-75
2021/12/30 01:57:00;;;;;;;23.92;15.77;;;;;;;6.85;95.62;98305.91;6105435;23;20431;-75
2021/12/30 01:59:25;;;;;;;25.25;14.35;;;;;;;6.86;95.58;98315.47;6105316;23;20009;-75
2021/12/30 02:01:56;;;;;;;21.73;14.57;;;;;;;6.85;95.13;98319.19;6129906;23;20016;-75
2021/12/30 02:04:23;;;;;;;20.77;14.75;;;;;;;6.85;94.92;98318.38;6105876;23;20005;-75
2021/12/30 02:06:52;;;;;;;27.15;14.40;;;;;;;6.85;94.89;98323.66;6129835;23;20001;-75
2021/12/30 02:09:19;;;;;;;24.67;17.38;;;;;;;6.85;94.77;98327.13;6105500;23;20013;-75
2021/12/30 02:11:45;;;;;;;27.05;14.88;;;;;;;6.84;95.35;98322.06;6105542;23;20006;-75
2021/12/30 02:14:15;;;;;;;22.52;14.82;;;;;;;6.85;95.04;98318.38;6105262;23;20006;-75
2021/12/30 02:16:41;;;;;;;29.95;15.80;;;;;;;6.84;95.35;98324.72;6154052;23;20001;-75
2021/12/30 02:19:07;;;;;;;31.85;17.90;;;;;;;6.85;95.37;98334.28;6105476;23;20459;-75
2021/12/30 02:21:32;;;;;;;32.08;18.30;;;;;;;6.86;95.37;98335.91;6128782;23;20001;-77
2021/12/30 02:23:58;;;;;;;29.40;17.75;;;;;;;6.87;95.19;98330.34;6101465;23;20017;-77
2021/12/30 02:26:25;;;;;;;29.33;17.38;;;;;;;6.86;95.33;98338.56;6101999;23;20021;-77
2021/12/30 02:28:52;;;;;;;31.17;18.83;;;;;;;6.87;95.55;98324.25;6125068;23;20005;-77
2021/12/30 02:31:26;;;;;;;34.22;16.80;;;;;;;6.83;95.44;98334.53;6125657;23;20047;-77
2021/12/30 02:33:52;;;;;;;29.98;17.10;;;;;;;6.86;95.38;98342.00;6101155;23;20027;-77
2021/12/30 02:36:26;;;;;;;30.65;16.67;;;;;;;6.85;95.59;98345.69;6127006;23;20100;-77
2021/12/30 02:38:51;;;;;;;29.23;17.58;;;;;;;6.86;95.74;98360.56;6100658;23;20008;-74
2021/12/30 02:41:19;;;;;;;26.13;17.23;;;;;;;6.85;95.92;98366.91;6128855;23;20005;-74
2021/12/30 02:43:49;;;;;;;35.40;17.58;;;;;;;6.85;95.32;98364.28;6129052;23;20045;-73
2021/12/30 02:46:19;;;;;;;25.38;16.35;;;;;;;6.85;95.15;98353.66;6129439;23;20018;-74
2021/12/30 02:48:45;;;;;;;37.22;18.25;;;;;;;6.86;95.20;98357.91;6105016;23;20005;-74
2021/12/30 02:51:11;;;;;;;34.67;17.95;;;;;;;6.87;95.81;98367.50;6128968;23;20110;-74
2021/12/30 02:53:39;;;;;;;32.80;18.48;;;;;;;6.88;95.91;98353.16;6153040;23;20010;-74
2021/12/30 02:56:05;;;;;;;32.47;17.58;;;;;;;6.86;94.89;98355.25;6154841;23;20008;-74
2021/12/30 02:58:31;;;;;;;37.65;21.27;;;;;;;6.90;94.78;98366.22;6079679;23;20100;-75
2021/12/30 03:01:10;;;;;;;27.90;18.73;;;;;;;6.87;95.52;98364.03;6101277;23;20037;-76
2021/12/30 03:03:36;;;;;;;29.42;18.42;;;;;;;6.89;96.11;98375.19;6125240;23;20009;-76
2021/12/30 03:06:05;;;;;;;29.15;18.38;;;;;;;6.88;95.79;98378.91;6125638;23;20029;-77
2021/12/30 03:08:31;;;;;;;35.58;20.08;;;;;;;6.89;96.15;98388.47;6100307;23;20079;-77
2021/12/30 03:10:57;;;;;;;35.92;20.95;;;;;;;6.90;95.82;98390.91;6150964;23;20010;-77
2021/12/30 03:13:30;;;;;;;30.05;18.60;;;;;;;6.91;95.62;98381.06;6125818;23;20332;-77
2021/12/30 03:16:04;;;;;;;34.63;19.70;;;;;;;6.91;95.83;98384.53;6127398;23;20355;-77
2021/12/30 03:18:32;;;;;;;38.20;20.63;;;;;;;6.93;96.22;98395.72;6125638;23;20005;-76
2021/12/30 03:20:58;;;;;;;42.95;21.42;;;;;;;6.94;96.72;98389.38;6126635;23;20084;-76
2021/12/30 03:23:23;;;;;;;40.55;20.67;;;;;;;6.92;97.08;98388.81;6125840;23;20013;-76
2021/12/30 03:25:49;;;;;;;45.60;20.85;;;;;;;6.95;96.65;98398.94;6125336;23;20036;-76
2021/12/30 03:28:15;;;;;;;36.53;21.60;;;;;;;6.96;96.68;98400.56;6101597;23;20006;-76
2021/12/30 03:30:40;;;;;;;45.38;22.15;;;;;;;6.96;96.61;98411.19;6126223;23;20014;-76
2021/12/30 03:33:06;;;;;;;46.08;23.17;;;;;;;6.98;96.76;98419.69;6125893;23;20372;-77
2021/12/30 03:35:31;;;;;;;47.55;22.90;;;;;;;6.98;97.06;98425.00;6126102;23;20013;-76
2021/12/30 03:37:57;;;;;;;52.38;21.67;;;;;;;6.99;97.21;98429.25;6150744;23;20040;-76
2021/12/30 03:40:23;;;;;;;47.35;22.15;;;;;;;7.01;97.16;98424.53;6124831;23;20113;-76
2021/12/30 03:42:49;;;;;;;49.55;23.75;;;;;;;7.01;96.79;98431.69;6100363;23;20013;-76
2021/12/30 03:45:15;;;;;;;41.45;21.23;;;;;;;7.04;97.00;98439.97;6102363;23;20100;-76
2021/12/30 03:47:44;;;;;;;50.58;21.90;;;;;;;7.02;97.24;98450.03;6101163;23;20009;-76
2021/12/30 03:50:19;;;;;;;43.20;21.58;;;;;;;7.05;97.15;98454.88;6100797;23;20028;-76
2021/12/30 03:52:45;;;;;;;45.63;21.45;;;;;;;7.05;96.79;98454.88;6101280;23;20010;-76
2021/12/30 03:55:11;;;;;;;55.55;22.00;;;;;;;7.02;96.81;98444.72;6149623;23;20037;-76
2021/12/30 03:57:36;;;;;;;40.85;20.58;;;;;;;7.08;97.71;98467.66;6100622;23;20009;-76
2021/12/30 04:00:03;;;;;;;43.33;20.05;;;;;;;7.08;97.16;98475.63;6101008;23;20059;-77
2021/12/30 04:02:29;;;;;;;33.88;19.95;;;;;;;7.07;96.75;98484.63;6125190;23;20502;-77
2021/12/30 04:04:54;;;;;;;49.10;19.85;;;;;;;7.10;96.73;98491.31;6100386;23;20006;-76
2021/12/30 04:07:20;;;;;;;42.25;20.35;;;;;;;7.11;97.06;98487.59;6100913;23;20005;-76
2021/12/30 04:09:45;;;;;;;40.60;17.73;;;;;;;7.11;96.82;98477.81;6101721;23;20036;-76
2021/12/30 04:12:13;;;;;;;48.03;17.75;;;;;;;7.10;96.49;98476.19;6101023;23;20005;-77
2021/12/30 04:14:39;;;;;;;36.42;17.90;;;;;;;7.11;96.65;98488.44;6125744;23;20432;-77
2021/12/30 04:17:05;;;;;;;43.25;18.63;;;;;;;7.09;96.87;98498.47;6101047;23;20020;-76
2021/12/30 04:19:30;;;;;;;39.20;18.65;;;;;;;7.12;96.68;98497.97;6076377;23;20040;-77
2021/12/30 04:21:57;;;;;;;37.17;18.67;;;;;;;7.08;96.45;98488.06;6124751;23;20627;-76
2021/12/30 04:24:23;;;;;;;37.17;17.88;;;;;;;7.11;96.35;98508.84;6124916;23;20005;-77
2021/12/30 04:26:50;;;;;;;37.85;18.17;;;;;;;7.12;96.49;98511.25;6100451;23;20068;-77
2021/12/30 04:29:17;;;;;;;47.80;17.33;;;;;;;7.10;95.95;98513.34;6103167;23;20448;-77
2021/12/30 04:31:42;;;;;;;36.38;17.15;;;;;;;7.13;97.08;98517.38;6103376;23;20044;-77
2021/12/30 04:34:08;;;;;;;37.33;18.10;;;;;;;6.57;96.47;98433.19;6128047;23;20391;-91
2021/12/30 04:36:33;;;;;;;37.60;18.23;;;;;;;6.80;96.67;98452.50;6183289;23;20565;-90
2021/12/30 04:38:58;;;;;;;33.80;16.33;;;;;;;6.51;96.12;98408.38;6184016;23;20008;-92
2021/12/30 04:41:24;;;;;;;44.00;16.73;;;;;;;6.54;95.91;98412.41;6184863;23;20009;-93
2021/12/30 04:43:49;;;;;;;46.10;18.35;;;;;;;6.67;95.67;98439.50;6182718;23;20008;-91
2021/12/30 04:46:14;;;;;;;33.60;14.70;;;;;;;7.11;95.67;98507.00;6208754;23;20084;-93
2021/12/30 04:48:40;;;;;;;40.83;16.58;;;;;;;6.48;95.83;98416.81;6208679;23;19997;-89
2021/12/30 04:51:05;;;;;;;34.58;15.85;;;;;;;6.53;95.74;98416.13;6183406;23;20016;-89
2021/12/30 04:53:31;;;;;;;35.88;15.13;;;;;;;7.12;95.83;98518.44;6185027;23;20075;-90
2021/12/30 04:55:56;;;;;;;36.83;14.13;;;;;;;6.74;95.48;98449.97;6184389;23;20400;-92
2021/12/30 04:58:22;;;;;;;27.50;14.35;;;;;;;6.52;95.93;98406.53;6183410;23;20008;-91
2021/12/30 05:00:47;;;;;;;32.70;14.50;;;;;;;7.14;96.18;98508.38;6208817;23;20091;-90
2021/12/30 05:03:14;;;;;;;35.10;14.00;;;;;;;6.39;95.97;98386.41;6208546;23;20005;-90
2021/12/30 05:05:51;;;;;;;33.88;13.85;;;;;;;6.27;96.05;98351.16;6183483;23;20032;-90
2021/12/30 05:08:22;;;;;;;38.47;13.60;;;;;;;7.13;95.56;98506.75;6183282;23;20051;-89
2021/12/30 05:10:49;;;;;;;35.47;13.80;;;;;;;6.39;95.21;98391.69;6183117;23;20035;-91
2021/12/30 05:13:15;;;;;;;32.60;10.95;;;;;;;6.36;95.80;98384.19;6184109;23;20005;-90
2021/12/30 05:15:40;;;;;;;22.25;11.10;;;;;;;6.85;95.11;98459.75;6183569;23;20005;-90
2021/12/30 05:18:08;;;;;;;19.27;10.32;;;;;;;6.82;95.92;98454.91;6182609;23;20004;-89
2021/12/30 05:20:34;;;;;;;28.38;10.75;;;;;;;6.33;95.57;98371.44;6182696;23;20348;-91
2021/12/30 05:23:00;;;;;;;29.75;11.45;;;;;;;6.66;95.53;98421.97;6182844;23;20024;-89
2021/12/30 05:25:26;;;;;;;30.27;11.00;;;;;;;6.40;96.13;98371.31;6183146;23;20005;-91
2021/12/30 05:27:52;;;;;;;19.20;9.93;;;;;;;6.58;95.44;98403.78;6182537;23;20009;-90
2021/12/30 05:30:21;;;;;;;24.00;10.18;;;;;;;6.69;95.68;98428.66;6183135;23;20485;-90
2021/12/30 05:32:48;;;;;;;23.25;9.75;;;;;;;6.23;95.97;98349.19;6158829;23;20449;-91
2021/12/30 05:35:14;;;;;;;19.50;9.18;;;;;;;6.64;95.27;98410.78;6168929;23;20425;-92
2021/12/30 05:37:41;;;;;;;24.70;10.30;;;;;;;6.19;94.89;98329.50;6155532;23;20001;-90
2021/12/30 05:40:09;;;;;;;18.48;9.50;;;;;;;6.38;94.91;98366.22;6179116;23;20005;-91
2021/12/30 05:42:35;;;;;;;24.50;10.43;;;;;;;6.43;95.54;98384.09;6152283;23;20096;-90
2021/12/30 05:45:00;;;;;;;28.88;10.00;;;;;;;6.83;95.35;98445.94;6153515;23;20052;-92
2021/12/30 05:47:26;;;;;;;23.85;10.23;;;;;;;6.58;96.34;98408.25;6151666;23;20446;-90
2021/12/30 05:49:51;;;;;;;22.73;9.13;;;;;;;6.25;95.98;98352.41;6151688;23;20017;-91
2021/12/30 05:52:17;;;;;;;25.65;9.63;;;;;;;6.22;94.95;98348.41;6150788;23;20437;-92
2021/12/30 05:54:43;;;;;;;17.30;9.32;;;;;;;6.42;95.50;98388.56;6129200;23;20096;-91
2021/12/30 05:57:09;;;;;;;17.42;8.95;;;;;;;6.37;95.34;98369.94;6153195;23;20025;-91
2021/12/30 05:59:35;;;;;;;23.77;10.23;;;;;;;7.18;95.95;98491.75;6153876;23;20001;-91
2021/12/30 06:02:01;;;;;;;19.45;9.45;;;;;;;6.32;95.32;98356.56;6153400;23;20006;-91
2021/12/30 06:04:29;;;;;;;20.27;8.73;;;;;;;6.81;95.70;98440.06;6129261;23;20073;-92
2021/12/30 06:06:54;;;;;;;23.80;9.13;;;;;;;6.54;95.09;98397.31;6153318;23;20027;-91
2021/12/30 06:09:22;;;;;;;25.27;9.35;;;;;;;7.19;95.35;98505.81;6153340;23;20013;-90
2021/12/30 06:11:50;;;;;;;26.10;9.23;;;;;;;7.02;95.81;98476.56;6154200;23;20011;-93
2021/12/30 06:14:15;;;;;;;17.35;10.15;;;;;;;6.98;95.44;98469.28;6153759;23;20032;-91
2021/12/30 06:16:41;;;;;;;20.02;8.60;;;;;;;7.19;95.46;98501.31;6153559;23;20039;-94
2021/12/30 06:19:06;;;;;;;21.52;10.32;;;;;;;6.34;95.57;98359.78;6153225;23;20437;-91
2021/12/30 06:21:31;;;;;;;24.00;9.13;;;;;;;6.29;95.52;98359.66;6153487;23;20008;-91
2021/12/30 06:23:57;;;;;;;12.73;7.32;;;;;;;6.26;95.09;98348.75;6152235;23;20009;-91
2021/12/30 06:26:23;;;;;;;23.75;10.00;;;;;;;6.33;95.75;98355.53;6128654;23;20005;-91
2021/12/30 06:28:48;;;;;;;25.48;9.10;;;;;;;6.77;95.10;98433.59;6178167;23;20421;-91
2021/12/30 06:31:14;;;;;;;19.13;9.35;;;;;;;6.72;95.32;98431.66;6153401;23;20005;-92
2021/12/30 06:33:40;;;;;;;22.75;8.60;;;;;;;6.50;95.67;98408.63;6153070;23;20009;-89
2021/12/30 06:36:06;;;;;;;19.55;8.60;;;;;;;6.34;94.93;98391.59;6178320;23;20059;-90
2021/12/30 06:38:33;;;;;;;18.08;8.77;;;;;;;7.22;95.59;98519.44;6182970;23;20431;-92
2021/12/30 06:40:59;;;;;;;17.42;8.13;;;;;;;6.35;95.49;98379.16;6182303;23;20462;-90
2021/12/30 06:43:24;;;;;;;22.75;9.90;;;;;;;7.23;95.46;98534.31;6183909;23;20008;-91
2021/12/30 06:45:50;;;;;;;23.55;8.63;;;;;;;6.37;95.10;98411.53;6183534;23;20442;-91
2021/12/30 06:48:15;;;;;;;21.27;9.10;;;;;;;6.59;95.54;98441.69;6182228;23;20024;-91
2021/12/30 06:50:42;;;;;;;24.55;9.90;;;;;;;6.82;95.36;98473.47;6182747;23;20078;-92
2021/12/30 06:53:07;;;;;;;19.73;8.88;;;;;;;6.31;95.46;98401.84;6181585;23;20095;-90
2021/12/30 06:55:33;;;;;;;24.33;10.10;;;;;;;6.84;95.65;98497.91;6182757;23;20071;-88
2021/12/30 06:57:58;;;;;;;21.90;9.10;;;;;;;6.32;95.22;98416.69;6182129;23;19997;-91
2021/12/30 07:00:24;;;;;;;22.17;9.65;;;;;;;7.28;95.34;98570.75;6182576;23;20008;-91
2021/12/30 07:02:49;;;;;;;23.70;8.90;;;;;;;7.29;95.35;98580.34;6182840;23;20393;-91
2021/12/30 07:05:15;;;;;;;23.63;9.38;;;;;;;6.75;95.68;98478.09;6182975;23;20037;-90
2021/12/30 07:07:43;;;;;;;23.23;9.00;;;;;;;7.29;95.34;98585.66;6182739;23;20012;-89
2021/12/30 07:10:09;;;;;;;23.95;9.70;;;;;;;7.29;95.30;98588.31;6207148;23;20009;-91
2021/12/30 07:12:37;;;;;;;19.30;7.93;;;;;;;6.76;95.19;98500.94;6181946;23;20124;-91
2021/12/30 07:15:05;;;;;;;17.50;8.98;;;;;;;6.27;95.02;98398.06;6182874;23;20005;-90
2021/12/30 07:17:32;;;;;;;21.17;10.95;;;;;;;6.88;95.25;98493.75;6181496;23;19997;-91
2021/12/30 07:19:58;;;;;;;15.82;8.65;;;;;;;6.71;95.60;98461.84;6184342;23;20008;-88
2021/12/30 07:22:24;;;;;;;27.60;9.60;;;;;;;6.29;95.95;98390.69;6183058;23;20435;-91
2021/12/30 07:24:49;;;;;;;29.77;9.88;;;;;;;6.99;95.97;98502.75;6182402;23;20032;-90
2021/12/30 07:27:14;;;;;;;34.50;10.32;;;;;;;7.36;96.43;98565.91;6183550;23;20004;-91
2021/12/30 07:29:40;;;;;;;31.83;9.65;;;;;;;6.95;96.70;98481.19;6207230;23;20331;-89
2021/12/30 07:32:05;;;;;;;27.67;10.18;;;;;;;7.37;96.89;98572.84;6182518;23;20001;-91
2021/12/30 07:34:31;;;;;;;32.38;9.95;;;;;;;7.38;97.28;98565.69;6190116;23;20094;-90
2021/12/30 07:36:56;;;;;;;23.35;8.27;;;;;;;6.94;95.99;98497.34;6187951;23;20384;-92
2021/12/30 07:39:21;;;;;;;23.38;8.30;;;;;;;6.60;96.57;98440.66;6214223;23;20073;-91
2021/12/30 07:41:47;;;;;;;20.15;8.40;;;;;;;6.43;96.54;98402.63;6187602;23;20068;-90
2021/12/30 07:44:15;;;;;;;25.17;7.43;;;;;;;6.70;96.38;98457.59;6187800;23;20000;-93
2021/12/30 07:46:41;;;;;;;21.48;7.93;;;;;;;6.84;96.46;98455.47;6187986;23;20450;-90
2021/12/30 07:49:06;;;;;;;17.50;7.93;;;;;;;6.47;96.83;98401.94;6213815;23;20013;-91
2021/12/30 07:51:31;;;;;;;17.30;7.20;;;;;;;6.39;96.51;98391.69;6187682;23;20091;-91
2021/12/30 07:53:57;;;;;;;22.38;7.43;;;;;;;7.43;95.92;98555.16;6214187;23;20013;-91
2021/12/30 07:56:22;;;;;;;22.77;6.55;;;;;;;6.95;95.95;98473.22;6187911;23;20483;-92
2021/12/30 07:58:48;;;;;;;23.85;8.05;;;;;;;7.24;96.22;98524.50;6212729;23;20079;-90
2021/12/30 08:01:13;;;;;;;14.90;7.45;;;;;;;6.72;96.01;98430.84;6188076;23;20028;-92
2021/12/30 08:03:39;;;;;;;15.30;7.13;;;;;;;6.74;95.86;98448.13;6214359;23;20032;-92
2021/12/30 08:06:05;;;;;;;17.48;8.02;;;;;;;7.15;95.77;98510.78;6189038;23;20005;-91
2021/12/30 08:08:30;;;;;;;15.18;6.32;;;;;;;6.81;95.65;98466.56;6190018;23;19997;-93
2021/12/30 08:10:56;;;;;;;14.57;5.80;;;;;;;6.95;96.05;98475.88;6189422;23;20009;-92
2021/12/30 08:13:23;;;;;;;11.13;5.78;;;;;;;7.26;96.13;98528.53;6188847;23;20089;-93
2021/12/30 08:15:49;;;;;;;18.48;6.15;;;;;;;7.30;96.11;98539.47;6189250;23;20005;-92
2021/12/30 08:18:14;;;;;;;13.25;4.93;;;;;;;6.99;95.94;98495.59;6188921;23;20007;-90
2021/12/30 08:20:40;;;;;;;12.52;5.82;;;;;;;7.50;95.69;98564.59;6189677;23;20083;-91
2021/12/30 08:23:05;;;;;;;15.93;6.07;;;;;;;7.27;96.20;98530.13;6189105;23;20011;-92
2021/12/30 08:25:31;;;;;;;10.63;4.75;;;;;;;6.94;96.32;98470.81;6189383;23;20504;-91
2021/12/30 08:27:56;;;;;;;10.65;4.90;;;;;;;6.95;96.06;98470.56;6163339;23;20054;-91
2021/12/30 08:30:23;;;;;;;7.95;4.75;;;;;;;7.32;95.99;98540.88;6188298;23;20005;-91
2021/12/30 08:32:49;;;;;;;12.50;4.30;;;;;;;6.44;96.17;98389.16;6213970;23;20000;-90
2021/12/30 08:35:32;;;;;;;16.58;5.03;;;;;;;6.66;95.91;98426.47;6188556;23;20004;-92
2021/12/30 08:37:59;;;;;;;8.75;3.95;;;;;;;6.85;96.18;98451.00;6187960;23;20091;-92
2021/12/30 08:40:24;;;;;;;12.18;4.60;;;;;;;6.53;96.32;98410.81;6189778;23;20005;-91
2021/12/30 08:42:49;;;;;;;8.68;3.83;;;;;;;7.04;96.22;98484.28;6188660;23;20027;-92
2021/12/30 08:45:16;;;;;;;8.77;4.00;;;;;;;7.49;96.12;98554.22;6189160;23;20039;-92
2021/12/30 08:47:43;;;;;;;8.10;4.20;;;;;;;7.04;96.27;98476.31;6188883;23;20392;-94
2021/12/30 08:50:38;;;;;;;12.98;4.00;;;;;;;7.65;96.42;98581.88;6215671;23;20009;-92
2021/12/30 08:53:04;;;;;;;6.18;2.95;;;;;;;7.68;95.84;98589.38;6168983;23;20051;-90
2021/12/30 08:55:30;;;;;;;6.22;3.17;;;;;;;6.82;96.58;98446.94;6213247;23;20488;-91
2021/12/30 08:58:00;;;;;;;8.15;2.55;;;;;;;7.16;96.18;98504.47;6186678;23;20000;-93
2021/12/30 09:00:31;;;;;;;5.80;3.03;;;;;;;6.89;96.25;98465.38;6188247;23;20023;-91
2021/12/30 09:03:04;;;;;;;11.50;4.18;;;;;;;7.68;96.73;98586.72;6189251;23;20008;-91
2021/12/30 09:05:42;;;;;;;2.22;2.00;;;;;;;6.70;96.47;98420.47;6213797;23;20016;-92
2021/12/30 09:10:59;;;;;;;6.25;2.53;;;;;;;6.89;96.33;98446.81;6208302;23;20008;-88
2021/12/30 09:13:28;;;;;;;8.40;2.50;;;;;;;7.42;96.60;98549.06;6188170;23;20424;-90
2021/12/30 09:15:56;;;;;;;7.75;2.45;;;;;;;6.88;96.02;98461.94;6188738;23;20008;-91
2021/12/30 09:18:44;;;;;;;10.13;3.35;;;;;;;7.04;96.25;98482.44;6213266;23;20021;-90
2021/12/30 09:21:10;;;;;;;3.33;1.98;;;;;;;6.93;95.90;98447.97;6179103;23;20424;-89
2021/12/30 09:23:35;;;;;;;3.78;2.22;;;;;;;7.87;96.00;98599.59;6187297;23;20119;-89
2021/12/30 09:26:01;;;;;;;6.63;2.28;;;;;;;7.68;96.66;98558.31;6163021;23;20037;-91
2021/12/30 09:28:26;;;;;;;3.17;2.30;;;;;;;7.13;95.88;98464.28;6138612;23;20000;-91
2021/12/30 09:30:52;;;;;;;2.88;1.80;;;;;;;7.86;96.08;98575.91;6189471;23;20005;-91
2021/12/30 09:33:17;;;;;;;4.10;2.00;;;;;;;7.69;95.96;98559.13;6164600;23;20016;-91
2021/12/30 09:35:44;;;;;;;2.15;1.60;;;;;;;7.11;95.41;98451.28;6188750;23;20448;-94
2021/12/30 09:38:16;;;;;;;4.60;1.70;;;;;;;7.20;94.94;98464.97;6188707;23;20013;-91
2021/12/30 09:40:41;;;;;;;4.63;2.08;;;;;;;7.62;94.94;98543.34;6189259;23;20007;-91
2021/12/30 09:43:11;;;;;;;2.47;1.60;;;;;;;7.26;94.78;98486.06;6188318;23;20332;-89
2021/12/30 09:45:39;;;;;;;1.40;1.30;;;;;;;7.68;95.57;98539.72;6159675;23;20091;-90
2021/12/30 09:48:11;;;;;;;3.83;1.70;;;;;;;7.30;95.22;98484.56;6213569;23;20007;-91
2021/12/30 09:51:07;;;;;;;1.33;1.17;;;;;;;8.09;95.20;98610.34;6209282;23;20012;-91
2021/12/30 09:53:33;;;;;;;1.55;1.42;;;;;;;7.49;95.25;98509.88;6185421;23;20019;-89
2021/12/30 09:55:59;;;;;;;2.38;1.65;;;;;;;7.25;94.82;98468.50;6187487;23;20047;-89
2021/12/30 09:58:26;;;;;;;3.42;1.30;;;;;;;8.16;94.34;98621.66;6188435;23;20007;-93
2021/12/30 10:01:04;;;;;;;2.90;1.15;;;;;;;7.21;94.26;98470.03;6189001;23;20044;-91
2021/12/30 10:03:37;;;;;;;1.77;1.08;;;;;;;8.02;94.82;98591.09;6215094;23;20000;-91
2021/12/30 10:06:08;;;;;;;1.45;1.02;;;;;;;7.94;94.81;98575.53;6189421;23;20095;-92
2021/12/30 10:08:41;;;;;;;1.30;0.90;;;;;;;8.23;94.78;98609.81;6188741;23;20001;-91
2021/12/30 10:11:30;;;;;;;2.28;1.08;;;;;;;7.19;94.48;98442.94;6189416;23;20524;-90
2021/12/30 10:14:00;;;;;;;1.20;0.90;;;;;;;8.27;94.70;98612.84;6179811;23;20447;-92
2021/12/30 10:17:15;;;;;;;;;;;;;;;;;;;;;
2021/12/30 10:23:18;;;;;;;1.13;1.05;;;;;;;8.34;95.01;98610.84;6201796;23;20952;-76
2021/12/30 10:25:47;;;;;;;1.23;1.00;;;;;;;8.25;95.25;98591.84;6135295;23;20027;-75
2021/12/30 10:28:33;;;;;;;1.33;0.85;;;;;;;8.40;95.33;98603.75;6158031;23;20040;-75
2021/12/30 10:31:11;;;;;;;1.15;1.00;;;;;;;8.41;95.20;98608.03;6184139;23;20091;-76
2021/12/30 10:33:49;;;;;;;2.72;1.20;;;;;;;8.45;95.16;98620.63;6183463;23;20005;-74
2021/12/30 10:36:19;;;;;;;1.38;1.25;;;;;;;8.46;95.14;98613.44;6157917;23;20009;-75
2021/12/30 10:38:45;;;;;;;2.83;1.05;;;;;;;8.48;95.29;98614.81;6157624;23;20084;-75
2021/12/30 10:41:10;;;;;;;1.92;1.25;;;;;;;8.45;94.93;98602.00;6158830;23;20029;-74
2021/12/30 10:46:17;;;;;;;1.75;1.33;;;;;;;8.56;94.62;98618.94;6195384;23;20012;-78
2021/12/30 10:48:49;;;;;;;1.23;1.17;;;;;;;8.55;94.67;98612.81;6157717;23;20372;-77
2021/12/30 10:51:38;;;;;;;0.90;0.90;;;;;;;8.59;94.56;98616.59;6157734;23;20005;-77
2021/12/30 10:54:20;;;;;;;1.30;1.20;;;;;;;8.61;95.15;98605.69;6184776;23;20335;-75
2021/12/30 10:57:06;;;;;;;1.67;1.30;;;;;;;8.61;94.40;98611.84;5125861;27;20403;-75
2021/12/30 10:59:37;;;;;;;2.45;1.52;;;;;;;8.66;95.43;98608.44;5073990;28;20059;-77
2021/12/30 11:02:04;;;;;;;1.45;1.30;;;;;;;8.68;95.29;98615.16;5088328;28;20027;-76
2021/12/30 11:04:45;;;;;;;1.52;1.42;;;;;;;8.69;94.83;98610.63;5096356;28;20036;-74
2021/12/30 11:07:14;;;;;;;3.03;1.23;;;;;;;8.73;95.11;98601.13;5089541;28;20520;-74
2021/12/30 11:09:51;;;;;;;1.90;1.63;;;;;;;8.71;94.40;98608.53;5083822;28;20117;-76
2021/12/30 11:12:24;;;;;;;2.67;1.40;;;;;;;8.73;94.85;98612.56;5099192;28;20503;-77
2021/12/30 11:14:49;;;;;;;1.35;1.25;;;;;;;8.78;94.61;98617.16;5099255;28;20023;-77
2021/12/30 11:17:21;;;;;;;1.15;1.08;;;;;;;8.80;94.18;98615.84;5080040;28;20454;-74
2021/12/30 11:20:10;;;;;;;1.38;1.27;;;;;;;8.75;94.61;98615.78;5092352;28;20422;-74
2021/12/30 11:22:40;;;;;;;1.50;1.40;;;;;;;8.76;94.35;98609.41;5082039;28;20034;-75
2021/12/30 11:25:12;;;;;;;1.20;1.10;;;;;;;8.83;94.33;98610.06;5097461;28;20016;-77
2021/12/30 11:27:38;;;;;;;1.55;1.45;;;;;;;8.85;94.81;98610.63;5063356;28;20392;-76
2021/12/30 11:30:08;;;;;;;1.30;1.20;;;;;;;8.84;94.19;98614.34;5098399;28;20088;-77
2021/12/30 11:32:35;;;;;;;2.50;2.30;;;;;;;8.86;94.52;98601.59;5096098;28;20036;-76
2021/12/30 11:35:03;;;;;;;2.60;1.15;;;;;;;8.90;94.58;98601.91;5101639;28;20027;-75
2021/12/30 11:37:39;;;;;;;3.10;1.75;;;;;;;8.89;94.41;98606.41;5109272;28;20092;-75
2021/12/30 11:40:18;;;;;;;2.20;1.20;;;;;;;8.94;93.92;98614.50;5100389;28;20077;-76
2021/12/30 11:42:49;;;;;;;1.40;1.30;;;;;;;8.93;93.72;98626.16;5096560;28;20544;-76
2021/12/30 11:45:31;;;;;;;3.67;1.83;;;;;;;8.97;94.13;98623.84;5101349;28;20072;-77